sensor_id;sensor_type;location;lat;lon;timestamp;pressure;altitude;pressure_sealevel;temperature;humidity
26719;BME280;14326;50.794;6.060;2023-04-27T00:00:57;99972.78;;;5.99;90.81
26719;BME280;14326;50.794;6.060;2023-04-27T00:03:47;99971.75;;;5.96;91.38
26719;BME280;14326;50.794;6.060;2023-04-27T00:06:15;99966.66;;;6.00;91.30
26719;BME280;14326;50.794;6.060;2023-04-27T00:08:43;99969.28;;;6.00;92.04
26719;BME280;14326;50.794;6.060;2023-04-27T00:11:10;99976.50;;;6.06;91.71
26719;BME280;14326;50.794;6.060;2023-04-27T00:13:37;99969.50;;;6.06;93.23
26719;BME280;14326;50.794;6.060;2023-04-27T00:16:04;99969.44;;;6.05;93.63
26719;BME280;14326;50.794;6.060;2023-04-27T00:18:33;99971.25;;;6.07;93.02
26719;BME280;14326;50.794;6.060;2023-04-27T00:21:01;99970.66;;;6.16;93.27
26719;BME280;14326;50.794;6.060;2023-04-27T00:23:27;99979.69;;;6.23;93.82
26719;BME280;14326;50.794;6.060;2023-04-27T00:25:58;99970.88;;;6.22;93.58
26719;BME280;14326;50.794;6.060;2023-04-27T00:28:24;99972.59;;;6.22;94.50
26719;BME280;14326;50.794;6.060;2023-04-27T00:30:51;99973.44;;;6.21;94.98
26719;BME280;14326;50.794;6.060;2023-04-27T00:33:31;99977.94;;;6.23;94.11
26719;BME280;14326;50.794;6.060;2023-04-27T00:36:10;99972.75;;;6.26;94.05
26719;BME280;14326;50.794;6.060;2023-04-27T00:39:16;99979.03;;;6.30;93.27
26719;BME280;14326;50.794;6.060;2023-04-27T00:42:13;99974.47;;;6.24;93.60
26719;BME280;14326;50.794;6.060;2023-04-27T00:45:03;99980.78;;;6.29;93.41
26719;BME280;14326;50.794;6.060;2023-04-27T00:47:52;99977.56;;;6.39;92.59
26719;BME280;14326;50.794;6.060;2023-04-27T00:50:39;99980.97;;;6.35;92.11
26719;BME280;14326;50.794;6.060;2023-04-27T00:53:06;99970.31;;;6.32;92.64
26719;BME280;14326;50.794;6.060;2023-04-27T00:55:32;99971.16;;;6.31;92.40
26719;BME280;14326;50.794;6.060;2023-04-27T00:58:00;99970.88;;;6.22;93.33
26719;BME280;14326;50.794;6.060;2023-04-27T01:00:28;99969.97;;;6.22;92.88
26719;BME280;14326;50.794;6.060;2023-04-27T01:03:03;99967.97;;;6.14;93.08
26719;BME280;14326;50.794;6.060;2023-04-27T01:05:30;99962.50;;;6.08;93.42
26719;BME280;14326;50.794;6.060;2023-04-27T01:08:06;99965.78;;;6.01;93.47
26719;BME280;14326;50.794;6.060;2023-04-27T01:11:03;99964.88;;;6.01;93.61
26719;BME280;14326;50.794;6.060;2023-04-27T01:14:23;99961.88;;;5.90;92.82
26719;BME280;14326;50.794;6.060;2023-04-27T01:17:19;99966.72;;;5.78;92.53
26719;BME280;14326;50.794;6.060;2023-04-27T01:19:52;99960.47;;;5.74;92.92
26719;BME280;14326;50.794;6.060;2023-04-27T01:22:21;99964.84;;;5.74;93.53
26719;BME280;14326;50.794;6.060;2023-04-27T01:24:57;99972.69;;;5.72;93.54
26719;BME280;14326;50.794;6.060;2023-04-27T01:27:54;99973.28;;;5.64;93.38
26719;BME280;14326;50.794;6.060;2023-04-27T01:30:34;99972.03;;;5.53;93.48
26719;BME280;14326;50.794;6.060;2023-04-27T01:33:11;99977.13;;;5.48;94.01
26719;BME280;14326;50.794;6.060;2023-04-27T01:36:10;99976.69;;;5.36;93.64
26719;BME280;14326;50.794;6.060;2023-04-27T01:39:06;99980.75;;;5.26;93.16
26719;BME280;14326;50.794;6.060;2023-04-27T01:41:48;99976.06;;;5.18;93.73
26719;BME280;14326;50.794;6.060;2023-04-27T01:44:20;99965.16;;;5.09;94.50
26719;BME280;14326;50.794;6.060;2023-04-27T01:46:48;99959.56;;;5.00;94.18
26719;BME280;14326;50.794;6.060;2023-04-27T01:49:17;99966.75;;;5.04;94.85
26719;BME280;14326;50.794;6.060;2023-04-27T01:51:44;99963.94;;;4.99;94.98
26719;BME280;14326;50.794;6.060;2023-04-27T01:54:11;99964.94;;;5.03;94.90
26719;BME280;14326;50.794;6.060;2023-04-27T01:56:37;99964.03;;;5.02;94.90
26719;BME280;14326;50.794;6.060;2023-04-27T01:59:06;99957.66;;;4.95;94.57
26719;BME280;14326;50.794;6.060;2023-04-27T02:01:33;99975.03;;;4.90;94.57
26719;BME280;14326;50.794;6.060;2023-04-27T02:03:59;99968.47;;;4.79;94.96
26719;BME280;14326;50.794;6.060;2023-04-27T02:06:26;99970.47;;;4.63;95.78
26719;BME280;14326;50.794;6.060;2023-04-27T02:08:53;99966.41;;;4.71;95.77
26719;BME280;14326;50.794;6.060;2023-04-27T02:11:28;99973.34;;;4.69;95.37
26719;BME280;14326;50.794;6.060;2023-04-27T02:14:16;99975.56;;;4.58;95.53
26719;BME280;14326;50.794;6.060;2023-04-27T02:16:50;99973.63;;;4.54;96.32
26719;BME280;14326;50.794;6.060;2023-04-27T02:19:32;99966.16;;;4.42;96.04
26719;BME280;14326;50.794;6.060;2023-04-27T02:22:26;99969.94;;;4.27;96.38
26719;BME280;14326;50.794;6.060;2023-04-27T02:25:01;99970.53;;;4.20;96.54
26719;BME280;14326;50.794;6.060;2023-04-27T03:25:02;99973.25;;;3.38;99.67
26719;BME280;14326;50.794;6.060;2023-04-27T03:30:38;99977.09;;;3.25;99.39
26719;BME280;14326;50.794;6.060;2023-04-27T03:33:38;99973.63;;;3.26;99.61
26719;BME280;14326;50.794;6.060;2023-04-27T03:36:17;99974.19;;;3.19;99.78
26719;BME280;14326;50.794;6.060;2023-04-27T03:39:16;99973.25;;;3.17;99.37
26719;BME280;14326;50.794;6.060;2023-04-27T03:45:06;99973.53;;;3.04;99.28
26719;BME280;14326;50.794;6.060;2023-04-27T03:47:49;99974.34;;;3.03;99.80
26719;BME280;14326;50.794;6.060;2023-04-27T03:50:16;99970.91;;;3.04;100.00
26719;BME280;14326;50.794;6.060;2023-04-27T03:53:02;99976.00;;;3.01;99.89
26719;BME280;14326;50.794;6.060;2023-04-27T03:56:01;99974.25;;;3.00;100.00
26719;BME280;14326;50.794;6.060;2023-04-27T03:58:47;99979.50;;;3.00;99.99
26719;BME280;14326;50.794;6.060;2023-04-27T04:01:18;99993.03;;;2.90;99.54
26719;BME280;14326;50.794;6.060;2023-04-27T04:03:46;99992.91;;;2.87;100.00
26719;BME280;14326;50.794;6.060;2023-04-27T04:09:04;100003.53;;;2.90;100.00
26719;BME280;14326;50.794;6.060;2023-04-27T04:11:31;99999.94;;;2.88;100.00
26719;BME280;14326;50.794;6.060;2023-04-27T04:13:59;100004.16;;;2.84;99.58
26719;BME280;14326;50.794;6.060;2023-04-27T04:16:34;99998.00;;;2.84;99.96
26719;BME280;14326;50.794;6.060;2023-04-27T04:19:03;100009.13;;;2.78;100.00
26719;BME280;14326;50.794;6.060;2023-04-27T04:21:35;100005.75;;;2.81;100.00
26719;BME280;14326;50.794;6.060;2023-04-27T04:24:02;100001.03;;;2.74;100.00
26719;BME280;14326;50.794;6.060;2023-04-27T04:26:29;100008.78;;;2.71;100.00
26719;BME280;14326;50.794;6.060;2023-04-27T04:28:56;100009.81;;;2.74;100.00
26719;BME280;14326;50.794;6.060;2023-04-27T04:31:24;100007.47;;;2.80;100.00
26719;BME280;14326;50.794;6.060;2023-04-27T04:33:51;100010.47;;;2.88;100.00
26719;BME280;14326;50.794;6.060;2023-04-27T04:36:18;100011.41;;;2.90;100.00
26719;BME280;14326;50.794;6.060;2023-04-27T04:38:44;100006.09;;;2.88;100.00
26719;BME280;14326;50.794;6.060;2023-04-27T04:41:11;100012.09;;;2.86;100.00
26719;BME280;14326;50.794;6.060;2023-04-27T04:43:38;100020.00;;;2.86;100.00
26719;BME280;14326;50.794;6.060;2023-04-27T04:46:06;100004.31;;;2.87;100.00
26719;BME280;14326;50.794;6.060;2023-04-27T04:48:42;100014.03;;;2.90;100.00
26719;BME280;14326;50.794;6.060;2023-04-27T04:51:17;100008.78;;;2.90;100.00
26719;BME280;14326;50.794;6.060;2023-04-27T04:53:43;100009.88;;;2.95;100.00
26719;BME280;14326;50.794;6.060;2023-04-27T04:56:20;100014.59;;;3.02;100.00
26719;BME280;14326;50.794;6.060;2023-04-27T04:58:48;100016.66;;;3.09;100.00
26719;BME280;14326;50.794;6.060;2023-04-27T05:01:33;100011.50;;;3.11;100.00
26719;BME280;14326;50.794;6.060;2023-04-27T05:04:02;100011.69;;;3.15;100.00
26719;BME280;14326;50.794;6.060;2023-04-27T05:06:58;100029.66;;;3.25;100.00
26719;BME280;14326;50.794;6.060;2023-04-27T05:09:35;100027.22;;;3.30;100.00
26719;BME280;14326;50.794;6.060;2023-04-27T05:12:18;100031.09;;;3.38;100.00
26719;BME280;14326;50.794;6.060;2023-04-27T05:14:58;100020.22;;;3.50;100.00
26719;BME280;14326;50.794;6.060;2023-04-27T05:17:39;100022.41;;;3.60;100.00
26719;BME280;14326;50.794;6.060;2023-04-27T05:20:08;100025.44;;;3.69;100.00
26719;BME280;14326;50.794;6.060;2023-04-27T05:22:35;100029.16;;;3.74;100.00
26719;BME280;14326;50.794;6.060;2023-04-27T05:25:02;100024.44;;;3.86;100.00
26719;BME280;14326;50.794;6.060;2023-04-27T05:27:29;100022.63;;;4.06;100.00
26719;BME280;14326;50.794;6.060;2023-04-27T05:29:56;100024.47;;;4.29;100.00
26719;BME280;14326;50.794;6.060;2023-04-27T05:32:25;100027.28;;;4.56;100.00
26719;BME280;14326;50.794;6.060;2023-04-27T05:34:52;100028.41;;;4.85;100.00
26719;BME280;14326;50.794;6.060;2023-04-27T05:37:21;100037.25;;;5.33;98.78
26719;BME280;14326;50.794;6.060;2023-04-27T05:39:54;100022.22;;;5.80;96.82
26719;BME280;14326;50.794;6.060;2023-04-27T05:42:20;100016.59;;;6.21;93.64
26719;BME280;14326;50.794;6.060;2023-04-27T05:44:47;100029.56;;;6.40;92.45
26719;BME280;14326;50.794;6.060;2023-04-27T05:47:14;100029.47;;;6.66;89.05
26719;BME280;14326;50.794;6.060;2023-04-27T05:49:49;100028.34;;;6.86;88.84
26719;BME280;14326;50.794;6.060;2023-04-27T05:52:15;100033.91;;;7.23;86.41
26719;BME280;14326;50.794;6.060;2023-04-27T05:54:58;100034.22;;;7.65;84.55
26719;BME280;14326;50.794;6.060;2023-04-27T05:57:40;100025.72;;;7.78;82.48
26719;BME280;14326;50.794;6.060;2023-04-27T06:00:21;100026.63;;;7.79;81.40
26719;BME280;14326;50.794;6.060;2023-04-27T06:05:36;100028.75;;;7.92;77.34
26719;BME280;14326;50.794;6.060;2023-04-27T06:08:03;100020.56;;;8.17;79.15
26719;BME280;14326;50.794;6.060;2023-04-27T06:10:31;100025.47;;;8.35;77.03
26719;BME280;14326;50.794;6.060;2023-04-27T06:12:57;100017.06;;;8.18;75.48
26719;BME280;14326;50.794;6.060;2023-04-27T06:15:40;100027.44;;;7.76;76.98
26719;BME280;14326;50.794;6.060;2023-04-27T06:18:15;100028.44;;;7.19;80.30
26719;BME280;14326;50.794;6.060;2023-04-27T06:20:42;100022.97;;;7.11;80.30
26719;BME280;14326;50.794;6.060;2023-04-27T06:23:08;100031.38;;;7.28;81.14
26719;BME280;14326;50.794;6.060;2023-04-27T06:25:37;100016.28;;;7.88;81.79
26719;BME280;14326;50.794;6.060;2023-04-27T06:28:04;100022.63;;;7.95;77.56
26719;BME280;14326;50.794;6.060;2023-04-27T06:30:31;100032.41;;;7.64;77.66
26719;BME280;14326;50.794;6.060;2023-04-27T06:33:14;100032.69;;;7.75;77.17
26719;BME280;14326;50.794;6.060;2023-04-27T06:36:10;100032.50;;;8.00;76.33
26719;BME280;14326;50.794;6.060;2023-04-27T06:38:40;100029.38;;;8.16;77.85
26719;BME280;14326;50.794;6.060;2023-04-27T06:41:44;100029.44;;;8.19;74.81
26719;BME280;14326;50.794;6.060;2023-04-27T06:44:22;100029.53;;;7.88;76.22
26719;BME280;14326;50.794;6.060;2023-04-27T06:46:49;100024.97;;;7.84;76.23
26719;BME280;14326;50.794;6.060;2023-04-27T06:49:27;100015.44;;;7.91;75.71
26719;BME280;14326;50.794;6.060;2023-04-27T06:52:14;100019.72;;;8.18;76.11
26719;BME280;14326;50.794;6.060;2023-04-27T06:54:44;100010.19;;;8.27;74.42
26719;BME280;14326;50.794;6.060;2023-04-27T06:57:12;100015.56;;;8.30;73.18
26719;BME280;14326;50.794;6.060;2023-04-27T06:59:38;100016.66;;;8.36;74.12
26719;BME280;14326;50.794;6.060;2023-04-27T07:02:06;100020.81;;;8.62;73.66
26719;BME280;14326;50.794;6.060;2023-04-27T07:04:32;100014.22;;;9.25;72.53
26719;BME280;14326;50.794;6.060;2023-04-27T07:07:02;100017.81;;;9.27;67.90
26719;BME280;14326;50.794;6.060;2023-04-27T07:09:32;100014.94;;;9.16;68.64
26719;BME280;14326;50.794;6.060;2023-04-27T07:12:01;100018.28;;;9.08;67.90
26719;BME280;14326;50.794;6.060;2023-04-27T07:14:29;100020.88;;;9.04;70.21
26719;BME280;14326;50.794;6.060;2023-04-27T07:16:57;100016.16;;;9.33;69.15
26719;BME280;14326;50.794;6.060;2023-04-27T07:19:24;100021.69;;;9.44;68.82
26719;BME280;14326;50.794;6.060;2023-04-27T07:21:51;100021.94;;;9.56;64.33
26719;BME280;14326;50.794;6.060;2023-04-27T07:24:17;100017.31;;;9.46;65.46
26719;BME280;14326;50.794;6.060;2023-04-27T07:26:44;100017.72;;;9.66;62.58
26719;BME280;14326;50.794;6.060;2023-04-27T07:29:11;100019.53;;;9.68;62.43
26719;BME280;14326;50.794;6.060;2023-04-27T07:31:40;100016.16;;;9.77;62.46
26719;BME280;14326;50.794;6.060;2023-04-27T07:34:06;100021.16;;;10.10;61.45
26719;BME280;14326;50.794;6.060;2023-04-27T07:36:34;100010.59;;;10.13;60.04
26719;BME280;14326;50.794;6.060;2023-04-27T07:39:01;100012.69;;;10.29;59.59
26719;BME280;14326;50.794;6.060;2023-04-27T07:41:30;100017.50;;;10.54;58.65
26719;BME280;14326;50.794;6.060;2023-04-27T07:43:58;100013.47;;;10.81;58.86
26719;BME280;14326;50.794;6.060;2023-04-27T07:46:25;100006.53;;;10.92;57.19
26719;BME280;14326;50.794;6.060;2023-04-27T07:48:53;100009.41;;;11.05;58.92
26719;BME280;14326;50.794;6.060;2023-04-27T07:51:20;100001.16;;;10.87;57.22
26719;BME280;14326;50.794;6.060;2023-04-27T07:53:46;100001.31;;;10.99;58.07
26719;BME280;14326;50.794;6.060;2023-04-27T07:56:13;100002.06;;;10.88;56.45
26719;BME280;14326;50.794;6.060;2023-04-27T07:58:55;99994.97;;;10.90;55.24
26719;BME280;14326;50.794;6.060;2023-04-27T08:01:36;99995.88;;;10.89;55.63
26719;BME280;14326;50.794;6.060;2023-04-27T08:04:04;99995.06;;;10.97;55.25
26719;BME280;14326;50.794;6.060;2023-04-27T08:06:31;99994.25;;;11.00;55.80
26719;BME280;14326;50.794;6.060;2023-04-27T08:09:02;100000.34;;;10.93;54.39
26719;BME280;14326;50.794;6.060;2023-04-27T08:11:39;99987.34;;;10.52;55.61
26719;BME280;14326;50.794;6.060;2023-04-27T08:14:10;99999.34;;;10.85;57.40
26719;BME280;14326;50.794;6.060;2023-04-27T08:16:39;99996.78;;;10.92;55.33
26719;BME280;14326;50.794;6.060;2023-04-27T08:19:08;99991.72;;;11.11;55.92
26719;BME280;14326;50.794;6.060;2023-04-27T08:21:35;99991.81;;;11.20;53.49
26719;BME280;14326;50.794;6.060;2023-04-27T08:24:17;99993.59;;;11.21;54.03
26719;BME280;14326;50.794;6.060;2023-04-27T08:29:47;99977.69;;;12.08;50.32
26719;BME280;14326;50.794;6.060;2023-04-27T08:32:25;99973.47;;;12.33;50.22
26719;BME280;14326;50.794;6.060;2023-04-27T08:34:56;99980.53;;;12.26;50.01
26719;BME280;14326;50.794;6.060;2023-04-27T08:37:23;99975.41;;;12.54;48.79
26719;BME280;14326;50.794;6.060;2023-04-27T08:39:50;99976.78;;;12.03;49.53
26719;BME280;14326;50.794;6.060;2023-04-27T08:42:29;99981.41;;;12.25;49.37
26719;BME280;14326;50.794;6.060;2023-04-27T08:45:07;99979.75;;;12.37;47.90
26719;BME280;14326;50.794;6.060;2023-04-27T08:47:34;99980.75;;;12.55;48.73
26719;BME280;14326;50.794;6.060;2023-04-27T08:50:11;99977.84;;;12.26;48.55
26719;BME280;14326;50.794;6.060;2023-04-27T08:52:40;99970.72;;;12.25;50.39
26719;BME280;14326;50.794;6.060;2023-04-27T08:55:09;99971.81;;;12.50;48.67
26719;BME280;14326;50.794;6.060;2023-04-27T08:57:52;99977.19;;;12.56;47.04
26719;BME280;14326;50.794;6.060;2023-04-27T09:00:39;99974.97;;;11.99;47.97
26719;BME280;14326;50.794;6.060;2023-04-27T09:03:22;99961.06;;;12.38;49.62
26719;BME280;14326;50.794;6.060;2023-04-27T09:05:50;99961.44;;;13.02;49.02
26719;BME280;14326;50.794;6.060;2023-04-27T09:08:17;99965.56;;;12.47;48.41
26719;BME280;14326;50.794;6.060;2023-04-27T09:10:44;99973.56;;;12.47;47.98
26719;BME280;14326;50.794;6.060;2023-04-27T09:13:11;99979.63;;;12.24;48.18
26719;BME280;14326;50.794;6.060;2023-04-27T09:15:43;99968.25;;;12.48;48.64
26719;BME280;14326;50.794;6.060;2023-04-27T09:18:18;99962.22;;;12.77;48.87
26719;BME280;14326;50.794;6.060;2023-04-27T09:20:46;99968.53;;;12.97;48.56
26719;BME280;14326;50.794;6.060;2023-04-27T09:23:27;99968.53;;;12.94;47.42
26719;BME280;14326;50.794;6.060;2023-04-27T09:25:54;99969.31;;;12.71;47.21
26719;BME280;14326;50.794;6.060;2023-04-27T09:28:21;99954.19;;;12.72;48.00
26719;BME280;14326;50.794;6.060;2023-04-27T09:30:52;99967.69;;;13.04;48.31
26719;BME280;14326;50.794;6.060;2023-04-27T09:33:23;99961.38;;;12.84;47.44
26719;BME280;14326;50.794;6.060;2023-04-27T09:35:50;99973.75;;;12.71;47.52
26719;BME280;14326;50.794;6.060;2023-04-27T09:38:17;99966.00;;;13.12;46.89
26719;BME280;14326;50.794;6.060;2023-04-27T09:40:46;99963.22;;;13.03;46.51
26719;BME280;14326;50.794;6.060;2023-04-27T09:43:13;99965.78;;;12.77;47.04
26719;BME280;14326;50.794;6.060;2023-04-27T09:45:40;99958.44;;;12.49;47.40
26719;BME280;14326;50.794;6.060;2023-04-27T09:48:08;99965.75;;;12.71;46.16
26719;BME280;14326;50.794;6.060;2023-04-27T09:50:36;99962.34;;;12.99;47.39
26719;BME280;14326;50.794;6.060;2023-04-27T09:53:06;99953.47;;;13.06;47.60
26719;BME280;14326;50.794;6.060;2023-04-27T09:55:38;99949.09;;;13.22;46.28
26719;BME280;14326;50.794;6.060;2023-04-27T09:58:22;99949.09;;;13.18;48.05
26719;BME280;14326;50.794;6.060;2023-04-27T10:00:59;99947.28;;;13.20;45.99
26719;BME280;14326;50.794;6.060;2023-04-27T10:03:33;99946.22;;;12.81;46.23
26719;BME280;14326;50.794;6.060;2023-04-27T10:06:41;99933.09;;;13.19;45.91
26719;BME280;14326;50.794;6.060;2023-04-27T10:09:12;99935.75;;;13.31;46.45
26719;BME280;14326;50.794;6.060;2023-04-27T10:11:42;99932.22;;;13.25;46.90
26719;BME280;14326;50.794;6.060;2023-04-27T10:14:15;99926.91;;;13.49;48.80
26719;BME280;14326;50.794;6.060;2023-04-27T10:16:43;99936.69;;;13.41;46.30
26719;BME280;14326;50.794;6.060;2023-04-27T10:19:39;99930.50;;;13.63;47.11
26719;BME280;14326;50.794;6.060;2023-04-27T10:22:17;99932.34;;;13.78;46.17
26719;BME280;14326;50.794;6.060;2023-04-27T10:24:48;99918.94;;;13.70;46.37
26719;BME280;14326;50.794;6.060;2023-04-27T10:27:17;99922.50;;;13.75;47.07
26719;BME280;14326;50.794;6.060;2023-04-27T10:29:46;99926.88;;;13.31;47.15
26719;BME280;14326;50.794;6.060;2023-04-27T10:32:23;99926.00;;;13.41;47.74
26719;BME280;14326;50.794;6.060;2023-04-27T10:34:50;99934.03;;;13.50;48.24
26719;BME280;14326;50.794;6.060;2023-04-27T10:37:18;99923.38;;;13.59;47.07
26719;BME280;14326;50.794;6.060;2023-04-27T10:39:48;99918.97;;;13.78;47.34
26719;BME280;14326;50.794;6.060;2023-04-27T10:42:25;99932.31;;;13.82;46.68
26719;BME280;14326;50.794;6.060;2023-04-27T10:44:55;99931.44;;;13.77;47.26
26719;BME280;14326;50.794;6.060;2023-04-27T10:47:22;99924.28;;;13.58;48.48
26719;BME280;14326;50.794;6.060;2023-04-27T10:49:51;99921.53;;;13.38;47.52
26719;BME280;14326;50.794;6.060;2023-04-27T10:52:18;99919.78;;;13.49;46.93
26719;BME280;14326;50.794;6.060;2023-04-27T10:54:48;99922.50;;;13.60;47.10
26719;BME280;14326;50.794;6.060;2023-04-27T10:57:23;99913.56;;;13.57;47.00
26719;BME280;14326;50.794;6.060;2023-04-27T10:59:52;99911.81;;;13.81;48.75
26719;BME280;14326;50.794;6.060;2023-04-27T11:02:26;99909.13;;;13.97;47.34
26719;BME280;14326;50.794;6.060;2023-04-27T11:04:54;99902.91;;;13.82;46.37
26719;BME280;14326;50.794;6.060;2023-04-27T11:07:25;99896.66;;;13.97;47.29
26719;BME280;14326;50.794;6.060;2023-04-27T11:09:52;99892.19;;;14.02;48.45
26719;BME280;14326;50.794;6.060;2023-04-27T11:12:18;99884.19;;;14.01;46.35
26719;BME280;14326;50.794;6.060;2023-04-27T11:14:45;99878.81;;;14.22;45.86
26719;BME280;14326;50.794;6.060;2023-04-27T11:17:12;99877.94;;;14.05;46.25
26719;BME280;14326;50.794;6.060;2023-04-27T11:19:47;99875.25;;;14.24;46.99
26719;BME280;14326;50.794;6.060;2023-04-27T11:22:14;99869.00;;;14.41;46.32
26719;BME280;14326;50.794;6.060;2023-04-27T11:24:46;99871.69;;;14.24;45.89
26719;BME280;14326;50.794;6.060;2023-04-27T11:27:13;99865.47;;;14.01;45.78
26719;BME280;14326;50.794;6.060;2023-04-27T11:30:03;99861.03;;;13.75;47.55
26719;BME280;14326;50.794;6.060;2023-04-27T11:32:37;99870.81;;;13.93;48.16
26719;BME280;14326;50.794;6.060;2023-04-27T11:35:06;99863.69;;;14.00;46.77
26719;BME280;14326;50.794;6.060;2023-04-27T11:40:27;99863.66;;;14.24;45.78
26719;BME280;14326;50.794;6.060;2023-04-27T11:42:57;99861.88;;;14.14;46.89
26719;BME280;14326;50.794;6.060;2023-04-27T11:45:41;99853.88;;;13.86;46.03
26719;BME280;14326;50.794;6.060;2023-04-27T11:48:12;99857.47;;;13.84;47.00
26719;BME280;14326;50.794;6.060;2023-04-27T11:50:55;99861.91;;;13.86;46.79
26719;BME280;14326;50.794;6.060;2023-04-27T11:53:28;99856.53;;;14.09;45.68
26719;BME280;14326;50.794;6.060;2023-04-27T11:56:09;99855.66;;;14.03;45.61
26719;BME280;14326;50.794;6.060;2023-04-27T11:58:44;99850.31;;;14.04;46.56
26719;BME280;14326;50.794;6.060;2023-04-27T12:01:30;99848.50;;;14.23;46.44
26719;BME280;14326;50.794;6.060;2023-04-27T12:04:01;99834.19;;;14.36;46.38
26719;BME280;14326;50.794;6.060;2023-04-27T12:06:59;99848.53;;;13.74;46.35
26719;BME280;14326;50.794;6.060;2023-04-27T12:09:33;99843.22;;;13.89;46.89
26719;BME280;14326;50.794;6.060;2023-04-27T12:12:10;99844.06;;;14.11;46.88
26719;BME280;14326;50.794;6.060;2023-04-27T12:14:41;99844.91;;;14.28;46.13
26719;BME280;14326;50.794;6.060;2023-04-27T12:17:15;99841.38;;;14.14;46.15
26719;BME280;14326;50.794;6.060;2023-04-27T12:19:42;99838.72;;;13.96;45.80
26719;BME280;14326;50.794;6.060;2023-04-27T12:22:10;99836.94;;;13.97;46.33
26719;BME280;14326;50.794;6.060;2023-04-27T12:24:46;99847.63;;;14.13;46.34
26719;BME280;14326;50.794;6.060;2023-04-27T12:27:12;99844.97;;;14.06;45.68
26719;BME280;14326;50.794;6.060;2023-04-27T12:29:39;99827.13;;;14.18;46.96
26719;BME280;14326;50.794;6.060;2023-04-27T12:32:06;99828.81;;;14.60;46.71
26719;BME280;14326;50.794;6.060;2023-04-27T12:34:33;99837.78;;;14.46;46.41
26719;BME280;14326;50.794;6.060;2023-04-27T12:37:00;99836.03;;;14.37;46.94
26719;BME280;14326;50.794;6.060;2023-04-27T12:39:28;99830.63;;;14.46;45.98
26719;BME280;14326;50.794;6.060;2023-04-27T12:41:55;99840.44;;;14.47;46.19
26719;BME280;14326;50.794;6.060;2023-04-27T12:44:36;99834.19;;;14.51;45.30
26719;BME280;14326;50.794;6.060;2023-04-27T12:47:11;99834.09;;;14.74;45.75
26719;BME280;14326;50.794;6.060;2023-04-27T12:49:40;99835.88;;;14.75;44.42
26719;BME280;14326;50.794;6.060;2023-04-27T12:52:08;99836.84;;;14.59;46.01
26719;BME280;14326;50.794;6.060;2023-04-27T12:54:36;99835.94;;;14.57;46.19
26719;BME280;14326;50.794;6.060;2023-04-27T12:57:03;99833.34;;;14.37;45.19
26719;BME280;14326;50.794;6.060;2023-04-27T12:59:30;99826.19;;;14.27;44.81
26719;BME280;14326;50.794;6.060;2023-04-27T13:01:57;99827.03;;;14.53;46.08
26719;BME280;14326;50.794;6.060;2023-04-27T13:04:24;99824.28;;;14.76;44.98
26719;BME280;14326;50.794;6.060;2023-04-27T13:06:50;99819.66;;;15.02;44.85
26719;BME280;14326;50.794;6.060;2023-04-27T13:09:17;99818.69;;;15.17;44.60
26719;BME280;14326;50.794;6.060;2023-04-27T13:11:48;99816.81;;;15.31;44.39
26719;BME280;14326;50.794;6.060;2023-04-27T13:14:17;99813.09;;;15.50;43.63
26719;BME280;14326;50.794;6.060;2023-04-27T13:17:02;99822.97;;;15.44;42.71
26719;BME280;14326;50.794;6.060;2023-04-27T13:19:37;99813.25;;;15.31;43.30
26719;BME280;14326;50.794;6.060;2023-04-27T13:22:15;99803.47;;;15.25;44.25
26719;BME280;14326;50.794;6.060;2023-04-27T13:24:58;99808.78;;;15.27;43.58
26719;BME280;14326;50.794;6.060;2023-04-27T13:27:30;99813.25;;;15.26;43.65
26719;BME280;14326;50.794;6.060;2023-04-27T13:29:57;99798.22;;;15.07;44.19
26719;BME280;14326;50.794;6.060;2023-04-27T13:32:23;99799.94;;;15.17;44.92
26719;BME280;14326;50.794;6.060;2023-04-27T13:35:00;99798.91;;;15.33;44.73
26719;BME280;14326;50.794;6.060;2023-04-27T13:37:40;99794.63;;;15.11;44.89
26719;BME280;14326;50.794;6.060;2023-04-27T13:40:16;99797.28;;;15.11;45.69
26719;BME280;14326;50.794;6.060;2023-04-27T13:42:45;99795.56;;;14.98;44.85
26719;BME280;14326;50.794;6.060;2023-04-27T13:45:26;99790.28;;;14.89;44.42
26719;BME280;14326;50.794;6.060;2023-04-27T13:47:53;99780.38;;;15.04;44.55
26719;BME280;14326;50.794;6.060;2023-04-27T13:50:19;99786.50;;;15.22;45.10
26719;BME280;14326;50.794;6.060;2023-04-27T13:52:46;99785.59;;;15.21;44.56
26719;BME280;14326;50.794;6.060;2023-04-27T13:55:18;99780.16;;;15.36;46.24
26719;BME280;14326;50.794;6.060;2023-04-27T13:57:55;99778.31;;;15.41;44.59
26719;BME280;14326;50.794;6.060;2023-04-27T14:00:44;99770.31;;;15.34;44.39
26719;BME280;14326;50.794;6.060;2023-04-27T14:03:18;99768.75;;;15.07;44.73
26719;BME280;14326;50.794;6.060;2023-04-27T14:06:14;99774.03;;;15.16;44.78
26719;BME280;14326;50.794;6.060;2023-04-27T14:08:55;99770.28;;;15.38;44.11
26719;BME280;14326;50.794;6.060;2023-04-27T14:11:39;99760.25;;;15.68;45.12
26719;BME280;14326;50.794;6.060;2023-04-27T14:14:07;99745.81;;;15.81;43.46
26719;BME280;14326;50.794;6.060;2023-04-27T14:16:41;99748.44;;;15.87;43.52
26719;BME280;14326;50.794;6.060;2023-04-27T14:19:18;99748.38;;;15.94;43.21
26719;BME280;14326;50.794;6.060;2023-04-27T14:21:45;99737.78;;;15.79;43.56
26719;BME280;14326;50.794;6.060;2023-04-27T14:24:30;99737.75;;;15.81;43.46
26719;BME280;14326;50.794;6.060;2023-04-27T14:26:57;99738.06;;;15.47;43.97
26719;BME280;14326;50.794;6.060;2023-04-27T14:29:25;99726.56;;;15.33;45.11
26719;BME280;14326;50.794;6.060;2023-04-27T14:31:54;99726.53;;;15.36;45.65
26719;BME280;14326;50.794;6.060;2023-04-27T14:34:22;99727.34;;;15.47;45.36
26719;BME280;14326;50.794;6.060;2023-04-27T14:36:49;99722.19;;;15.25;45.04
26719;BME280;14326;50.794;6.060;2023-04-27T14:39:21;99722.34;;;15.00;45.61
26719;BME280;14326;50.794;6.060;2023-04-27T14:42:27;99714.19;;;15.17;45.99
26719;BME280;14326;50.794;6.060;2023-04-27T14:44:56;99711.25;;;15.52;46.27
26719;BME280;14326;50.794;6.060;2023-04-27T14:47:31;99704.97;;;15.54;45.23